sensor_id;sensor_type;location;lat;lon;timestamp;P1;durP1;ratioP1;P2;durP2;ratioP2
37997;SDS011;24079;51.824;4.682;2022-08-19T00:00:15;13.10;;;8.98;;
37997;SDS011;24079;51.824;4.682;2022-08-19T00:02:41;11.10;;;8.07;;
37997;SDS011;24079;51.824;4.682;2022-08-19T00:05:08;15.43;;;8.65;;
37997;SDS011;24079;51.824;4.682;2022-08-19T00:07:36;14.30;;;8.75;;
37997;SDS011;24079;51.824;4.682;2022-08-19T00:10:02;14.38;;;8.02;;
37997;SDS011;24079;51.824;4.682;2022-08-19T00:12:29;18.27;;;10.10;;
37997;SDS011;24079;51.824;4.682;2022-08-19T00:14:55;15.20;;;9.95;;
37997;SDS011;24079;51.824;4.682;2022-08-19T00:17:20;15.50;;;10.15;;
37997;SDS011;24079;51.824;4.682;2022-08-19T00:19:46;13.52;;;8.73;;
37997;SDS011;24079;51.824;4.682;2022-08-19T00:22:12;14.65;;;9.32;;
37997;SDS011;24079;51.824;4.682;2022-08-19T00:24:37;12.75;;;8.40;;
37997;SDS011;24079;51.824;4.682;2022-08-19T00:27:03;15.27;;;8.57;;
37997;SDS011;24079;51.824;4.682;2022-08-19T00:29:30;13.65;;;9.52;;
37997;SDS011;24079;51.824;4.682;2022-08-19T00:31:56;14.07;;;9.60;;
37997;SDS011;24079;51.824;4.682;2022-08-19T00:34:23;13.95;;;8.95;;
37997;SDS011;24079;51.824;4.682;2022-08-19T00:36:50;14.90;;;8.88;;
37997;SDS011;24079;51.824;4.682;2022-08-19T00:39:15;12.45;;;9.25;;
37997;SDS011;24079;51.824;4.682;2022-08-19T00:41:42;12.98;;;8.52;;
37997;SDS011;24079;51.824;4.682;2022-08-19T00:46:49;14.68;;;9.05;;
37997;SDS011;24079;51.824;4.682;2022-08-19T00:49:28;12.00;;;8.80;;
37997;SDS011;24079;51.824;4.682;2022-08-19T00:52:05;14.63;;;9.40;;
37997;SDS011;24079;51.824;4.682;2022-08-19T00:54:33;22.08;;;10.25;;
37997;SDS011;24079;51.824;4.682;2022-08-19T00:57:02;16.42;;;10.15;;
37997;SDS011;24079;51.824;4.682;2022-08-19T00:59:31;15.50;;;9.77;;
37997;SDS011;24079;51.824;4.682;2022-08-19T01:02:03;15.45;;;9.65;;
37997;SDS011;24079;51.824;4.682;2022-08-19T01:04:29;17.88;;;10.57;;
37997;SDS011;24079;51.824;4.682;2022-08-19T01:06:55;14.98;;;10.38;;
37997;SDS011;24079;51.824;4.682;2022-08-19T01:09:21;16.48;;;11.55;;
37997;SDS011;24079;51.824;4.682;2022-08-19T01:11:46;20.15;;;11.98;;
37997;SDS011;24079;51.824;4.682;2022-08-19T01:14:12;22.73;;;12.32;;
37997;SDS011;24079;51.824;4.682;2022-08-19T01:16:39;21.60;;;13.07;;
37997;SDS011;24079;51.824;4.682;2022-08-19T01:19:09;21.52;;;14.40;;
37997;SDS011;24079;51.824;4.682;2022-08-19T01:21:48;23.17;;;15.82;;
37997;SDS011;24079;51.824;4.682;2022-08-19T01:24:27;22.98;;;16.83;;
37997;SDS011;24079;51.824;4.682;2022-08-19T01:26:53;23.70;;;18.25;;
37997;SDS011;24079;51.824;4.682;2022-08-19T01:29:19;27.60;;;19.85;;
37997;SDS011;24079;51.824;4.682;2022-08-19T01:31:45;25.80;;;19.50;;
37997;SDS011;24079;51.824;4.682;2022-08-19T01:34:11;26.33;;;19.35;;
37997;SDS011;24079;51.824;4.682;2022-08-19T01:36:41;31.75;;;22.65;;
37997;SDS011;24079;51.824;4.682;2022-08-19T01:39:11;32.17;;;23.70;;
37997;SDS011;24079;51.824;4.682;2022-08-19T01:41:38;31.88;;;24.17;;
37997;SDS011;24079;51.824;4.682;2022-08-19T01:44:05;28.70;;;22.70;;
37997;SDS011;24079;51.824;4.682;2022-08-19T01:46:33;28.17;;;22.98;;
37997;SDS011;24079;51.824;4.682;2022-08-19T01:48:59;30.17;;;22.05;;
37997;SDS011;24079;51.824;4.682;2022-08-19T01:51:25;28.98;;;21.27;;
37997;SDS011;24079;51.824;4.682;2022-08-19T01:53:51;28.15;;;20.50;;
37997;SDS011;24079;51.824;4.682;2022-08-19T01:56:17;28.58;;;21.35;;
37997;SDS011;24079;51.824;4.682;2022-08-19T01:58:45;28.27;;;21.10;;
37997;SDS011;24079;51.824;4.682;2022-08-19T02:01:15;33.58;;;22.92;;
37997;SDS011;24079;51.824;4.682;2022-08-19T02:03:41;32.20;;;24.45;;
37997;SDS011;24079;51.824;4.682;2022-08-19T02:06:07;39.03;;;27.85;;
37997;SDS011;24079;51.824;4.682;2022-08-19T02:08:34;39.10;;;28.75;;
37997;SDS011;24079;51.824;4.682;2022-08-19T02:11:02;40.03;;;29.17;;
37997;SDS011;24079;51.824;4.682;2022-08-19T02:13:29;50.30;;;34.47;;
37997;SDS011;24079;51.824;4.682;2022-08-19T02:15:55;52.75;;;37.40;;
37997;SDS011;24079;51.824;4.682;2022-08-19T02:18:20;53.50;;;37.95;;
37997;SDS011;24079;51.824;4.682;2022-08-19T02:20:46;56.25;;;37.33;;
37997;SDS011;24079;51.824;4.682;2022-08-19T02:23:14;52.55;;;35.78;;
37997;SDS011;24079;51.824;4.682;2022-08-19T02:25:41;51.05;;;32.67;;
37997;SDS011;24079;51.824;4.682;2022-08-19T02:28:09;50.55;;;32.72;;
37997;SDS011;24079;51.824;4.682;2022-08-19T02:30:34;48.80;;;32.42;;
37997;SDS011;24079;51.824;4.682;2022-08-19T02:33:00;50.25;;;32.08;;
37997;SDS011;24079;51.824;4.682;2022-08-19T02:35:26;47.60;;;33.83;;
37997;SDS011;24079;51.824;4.682;2022-08-19T02:37:51;46.63;;;34.17;;
37997;SDS011;24079;51.824;4.682;2022-08-19T02:40:35;55.30;;;35.33;;
37997;SDS011;24079;51.824;4.682;2022-08-19T02:43:05;55.50;;;36.85;;
37997;SDS011;24079;51.824;4.682;2022-08-19T02:45:33;55.97;;;37.27;;
37997;SDS011;24079;51.824;4.682;2022-08-19T02:48:01;60.60;;;37.63;;
37997;SDS011;24079;51.824;4.682;2022-08-19T02:50:27;52.95;;;36.17;;
37997;SDS011;24079;51.824;4.682;2022-08-19T02:52:53;67.00;;;42.30;;
37997;SDS011;24079;51.824;4.682;2022-08-19T02:55:18;67.18;;;41.67;;
37997;SDS011;24079;51.824;4.682;2022-08-19T02:57:45;62.03;;;42.03;;
37997;SDS011;24079;51.824;4.682;2022-08-19T03:00:11;63.50;;;41.10;;
37997;SDS011;24079;51.824;4.682;2022-08-19T03:02:38;66.82;;;41.97;;
37997;SDS011;24079;51.824;4.682;2022-08-19T03:05:04;65.28;;;43.40;;
37997;SDS011;24079;51.824;4.682;2022-08-19T03:07:31;65.05;;;42.38;;
37997;SDS011;24079;51.824;4.682;2022-08-19T03:09:57;66.25;;;44.28;;
37997;SDS011;24079;51.824;4.682;2022-08-19T03:12:23;71.07;;;45.53;;
37997;SDS011;24079;51.824;4.682;2022-08-19T03:14:48;71.10;;;44.05;;
37997;SDS011;24079;51.824;4.682;2022-08-19T03:17:14;69.13;;;45.13;;
37997;SDS011;24079;51.824;4.682;2022-08-19T03:19:39;73.03;;;47.72;;
37997;SDS011;24079;51.824;4.682;2022-08-19T03:22:05;80.90;;;48.38;;
37997;SDS011;24079;51.824;4.682;2022-08-19T03:24:31;81.50;;;50.75;;
37997;SDS011;24079;51.824;4.682;2022-08-19T03:26:56;83.72;;;51.13;;
37997;SDS011;24079;51.824;4.682;2022-08-19T03:29:23;73.72;;;47.88;;
37997;SDS011;24079;51.824;4.682;2022-08-19T03:31:53;77.88;;;50.03;;
37997;SDS011;24079;51.824;4.682;2022-08-19T03:34:21;77.10;;;50.97;;
37997;SDS011;24079;51.824;4.682;2022-08-19T03:36:51;78.55;;;51.13;;
37997;SDS011;24079;51.824;4.682;2022-08-19T03:39:17;78.40;;;49.63;;
37997;SDS011;24079;51.824;4.682;2022-08-19T03:41:43;82.80;;;53.28;;
37997;SDS011;24079;51.824;4.682;2022-08-19T03:44:11;88.53;;;53.90;;
37997;SDS011;24079;51.824;4.682;2022-08-19T03:46:40;88.38;;;54.00;;
37997;SDS011;24079;51.824;4.682;2022-08-19T03:49:06;89.20;;;54.65;;
37997;SDS011;24079;51.824;4.682;2022-08-19T03:51:37;86.13;;;52.40;;
37997;SDS011;24079;51.824;4.682;2022-08-19T03:54:05;78.60;;;51.75;;
37997;SDS011;24079;51.824;4.682;2022-08-19T03:56:33;80.72;;;51.50;;
37997;SDS011;24079;51.824;4.682;2022-08-19T03:59:00;84.38;;;52.00;;
37997;SDS011;24079;51.824;4.682;2022-08-19T04:01:28;79.55;;;49.33;;
37997;SDS011;24079;51.824;4.682;2022-08-19T04:03:55;80.38;;;50.50;;
37997;SDS011;24079;51.824;4.682;2022-08-19T04:06:26;77.47;;;47.33;;
37997;SDS011;24079;51.824;4.682;2022-08-19T04:08:55;68.07;;;46.67;;
37997;SDS011;24079;51.824;4.682;2022-08-19T04:11:24;72.10;;;46.88;;
37997;SDS011;24079;51.824;4.682;2022-08-19T04:13:52;69.18;;;45.13;;
37997;SDS011;24079;51.824;4.682;2022-08-19T04:16:19;73.63;;;47.53;;
37997;SDS011;24079;51.824;4.682;2022-08-19T04:18:46;77.82;;;49.50;;
37997;SDS011;24079;51.824;4.682;2022-08-19T04:21:20;72.38;;;43.85;;
37997;SDS011;24079;51.824;4.682;2022-08-19T04:23:47;78.10;;;45.20;;
37997;SDS011;24079;51.824;4.682;2022-08-19T04:26:32;79.70;;;47.83;;
37997;SDS011;24079;51.824;4.682;2022-08-19T04:29:02;72.57;;;44.88;;
37997;SDS011;24079;51.824;4.682;2022-08-19T04:31:31;80.00;;;47.38;;
37997;SDS011;24079;51.824;4.682;2022-08-19T04:34:01;79.57;;;48.53;;
37997;SDS011;24079;51.824;4.682;2022-08-19T04:36:30;69.97;;;44.50;;
37997;SDS011;24079;51.824;4.682;2022-08-19T04:38:58;75.05;;;44.85;;
37997;SDS011;24079;51.824;4.682;2022-08-19T04:41:26;78.85;;;43.85;;
37997;SDS011;24079;51.824;4.682;2022-08-19T04:44:11;75.43;;;43.45;;
37997;SDS011;24079;51.824;4.682;2022-08-19T04:46:36;73.68;;;42.05;;
37997;SDS011;24079;51.824;4.682;2022-08-19T04:49:04;74.78;;;42.00;;
37997;SDS011;24079;51.824;4.682;2022-08-19T04:51:30;67.35;;;41.97;;
37997;SDS011;24079;51.824;4.682;2022-08-19T04:54:00;64.40;;;40.05;;
37997;SDS011;24079;51.824;4.682;2022-08-19T04:56:27;68.03;;;40.72;;
37997;SDS011;24079;51.824;4.682;2022-08-19T04:58:54;75.63;;;41.58;;
37997;SDS011;24079;51.824;4.682;2022-08-19T05:01:24;70.25;;;38.88;;
37997;SDS011;24079;51.824;4.682;2022-08-19T05:03:53;70.45;;;39.80;;
37997;SDS011;24079;51.824;4.682;2022-08-19T05:06:20;74.00;;;39.75;;
37997;SDS011;24079;51.824;4.682;2022-08-19T05:08:46;73.32;;;39.95;;
37997;SDS011;24079;51.824;4.682;2022-08-19T05:11:20;73.32;;;40.08;;
37997;SDS011;24079;51.824;4.682;2022-08-19T05:13:47;82.65;;;43.35;;
37997;SDS011;24079;51.824;4.682;2022-08-19T05:16:14;79.20;;;39.55;;
37997;SDS011;24079;51.824;4.682;2022-08-19T05:18:41;70.30;;;38.92;;
37997;SDS011;24079;51.824;4.682;2022-08-19T05:21:26;72.68;;;38.10;;
37997;SDS011;24079;51.824;4.682;2022-08-19T05:24:11;73.15;;;37.47;;
37997;SDS011;24079;51.824;4.682;2022-08-19T05:26:39;78.93;;;40.53;;
37997;SDS011;24079;51.824;4.682;2022-08-19T05:29:06;77.68;;;38.47;;
37997;SDS011;24079;51.824;4.682;2022-08-19T05:31:33;75.47;;;39.33;;
37997;SDS011;24079;51.824;4.682;2022-08-19T05:34:00;81.43;;;39.05;;
37997;SDS011;24079;51.824;4.682;2022-08-19T05:36:27;73.95;;;37.95;;
37997;SDS011;24079;51.824;4.682;2022-08-19T05:38:57;75.57;;;39.58;;
37997;SDS011;24079;51.824;4.682;2022-08-19T05:41:23;69.57;;;38.88;;
37997;SDS011;24079;51.824;4.682;2022-08-19T05:43:54;75.03;;;38.97;;
37997;SDS011;24079;51.824;4.682;2022-08-19T05:46:21;73.88;;;40.15;;
37997;SDS011;24079;51.824;4.682;2022-08-19T05:48:47;83.80;;;40.05;;
37997;SDS011;24079;51.824;4.682;2022-08-19T05:51:13;68.38;;;39.97;;
37997;SDS011;24079;51.824;4.682;2022-08-19T05:53:40;65.55;;;38.88;;
37997;SDS011;24079;51.824;4.682;2022-08-19T05:56:06;76.85;;;42.25;;
37997;SDS011;24079;51.824;4.682;2022-08-19T05:58:34;70.00;;;39.72;;
37997;SDS011;24079;51.824;4.682;2022-08-19T06:01:00;71.97;;;38.97;;
37997;SDS011;24079;51.824;4.682;2022-08-19T06:03:29;67.15;;;40.38;;
37997;SDS011;24079;51.824;4.682;2022-08-19T06:05:56;67.80;;;39.22;;
37997;SDS011;24079;51.824;4.682;2022-08-19T06:08:24;73.43;;;41.22;;
37997;SDS011;24079;51.824;4.682;2022-08-19T06:10:50;69.55;;;39.25;;
37997;SDS011;24079;51.824;4.682;2022-08-19T06:13:15;69.53;;;40.80;;
37997;SDS011;24079;51.824;4.682;2022-08-19T06:15:42;64.78;;;37.33;;
37997;SDS011;24079;51.824;4.682;2022-08-19T06:18:09;74.13;;;40.78;;
37997;SDS011;24079;51.824;4.682;2022-08-19T06:20:34;67.05;;;39.83;;
37997;SDS011;24079;51.824;4.682;2022-08-19T06:23:00;71.00;;;39.38;;
37997;SDS011;24079;51.824;4.682;2022-08-19T06:25:25;71.32;;;39.78;;
37997;SDS011;24079;51.824;4.682;2022-08-19T06:27:51;69.93;;;39.97;;
37997;SDS011;24079;51.824;4.682;2022-08-19T06:30:17;66.68;;;38.45;;
37997;SDS011;24079;51.824;4.682;2022-08-19T06:32:43;64.57;;;38.70;;
37997;SDS011;24079;51.824;4.682;2022-08-19T06:35:09;62.78;;;37.70;;
37997;SDS011;24079;51.824;4.682;2022-08-19T06:37:36;65.35;;;35.28;;
37997;SDS011;24079;51.824;4.682;2022-08-19T06:40:02;69.57;;;38.92;;
37997;SDS011;24079;51.824;4.682;2022-08-19T06:42:28;70.25;;;38.05;;
37997;SDS011;24079;51.824;4.682;2022-08-19T06:44:55;62.00;;;40.13;;
37997;SDS011;24079;51.824;4.682;2022-08-19T06:47:21;66.82;;;38.72;;
37997;SDS011;24079;51.824;4.682;2022-08-19T06:49:46;67.85;;;38.35;;
37997;SDS011;24079;51.824;4.682;2022-08-19T06:52:12;59.50;;;35.78;;
37997;SDS011;24079;51.824;4.682;2022-08-19T06:54:39;63.75;;;36.35;;
37997;SDS011;24079;51.824;4.682;2022-08-19T06:57:06;61.15;;;36.47;;
37997;SDS011;24079;51.824;4.682;2022-08-19T06:59:34;60.38;;;35.15;;
37997;SDS011;24079;51.824;4.682;2022-08-19T07:02:01;67.78;;;36.08;;
37997;SDS011;24079;51.824;4.682;2022-08-19T07:04:33;63.13;;;35.88;;
37997;SDS011;24079;51.824;4.682;2022-08-19T07:07:08;51.78;;;34.22;;
37997;SDS011;24079;51.824;4.682;2022-08-19T07:09:38;53.38;;;31.50;;
37997;SDS011;24079;51.824;4.682;2022-08-19T07:12:06;46.47;;;28.83;;
37997;SDS011;24079;51.824;4.682;2022-08-19T07:14:34;50.08;;;29.45;;
37997;SDS011;24079;51.824;4.682;2022-08-19T07:17:05;54.08;;;29.70;;
37997;SDS011;24079;51.824;4.682;2022-08-19T07:19:33;57.03;;;29.30;;
37997;SDS011;24079;51.824;4.682;2022-08-19T07:22:00;61.67;;;30.48;;
37997;SDS011;24079;51.824;4.682;2022-08-19T07:24:28;49.17;;;29.90;;
37997;SDS011;24079;51.824;4.682;2022-08-19T07:26:55;49.03;;;28.70;;
37997;SDS011;24079;51.824;4.682;2022-08-19T07:29:25;50.85;;;26.90;;
37997;SDS011;24079;51.824;4.682;2022-08-19T07:31:53;48.03;;;27.55;;
37997;SDS011;24079;51.824;4.682;2022-08-19T07:34:21;46.60;;;26.15;;
37997;SDS011;24079;51.824;4.682;2022-08-19T07:36:48;45.08;;;25.40;;
37997;SDS011;24079;51.824;4.682;2022-08-19T07:39:16;55.13;;;26.23;;
37997;SDS011;24079;51.824;4.682;2022-08-19T07:41:44;44.17;;;26.08;;
37997;SDS011;24079;51.824;4.682;2022-08-19T07:44:10;42.38;;;23.88;;
37997;SDS011;24079;51.824;4.682;2022-08-19T07:46:38;47.22;;;25.17;;
37997;SDS011;24079;51.824;4.682;2022-08-19T07:49:05;40.75;;;24.30;;
37997;SDS011;24079;51.824;4.682;2022-08-19T07:51:32;39.55;;;22.48;;
37997;SDS011;24079;51.824;4.682;2022-08-19T07:53:58;37.38;;;21.67;;
37997;SDS011;24079;51.824;4.682;2022-08-19T07:56:25;43.05;;;22.67;;
37997;SDS011;24079;51.824;4.682;2022-08-19T07:58:51;36.65;;;22.27;;
37997;SDS011;24079;51.824;4.682;2022-08-19T08:01:18;37.92;;;20.83;;
37997;SDS011;24079;51.824;4.682;2022-08-19T08:03:49;35.42;;;20.23;;
37997;SDS011;24079;51.824;4.682;2022-08-19T08:06:35;33.35;;;20.08;;
37997;SDS011;24079;51.824;4.682;2022-08-19T08:09:26;39.78;;;22.08;;
37997;SDS011;24079;51.824;4.682;2022-08-19T08:11:56;32.40;;;20.48;;
37997;SDS011;24079;51.824;4.682;2022-08-19T08:14:30;39.10;;;20.75;;
37997;SDS011;24079;51.824;4.682;2022-08-19T08:17:01;35.08;;;21.05;;
37997;SDS011;24079;51.824;4.682;2022-08-19T08:19:27;37.92;;;21.20;;
37997;SDS011;24079;51.824;4.682;2022-08-19T08:21:55;32.67;;;19.70;;
37997;SDS011;24079;51.824;4.682;2022-08-19T08:24:23;37.65;;;19.20;;
37997;SDS011;24079;51.824;4.682;2022-08-19T08:26:49;37.47;;;19.35;;
37997;SDS011;24079;51.824;4.682;2022-08-19T08:29:15;36.90;;;19.85;;
37997;SDS011;24079;51.824;4.682;2022-08-19T08:31:41;28.50;;;18.00;;
37997;SDS011;24079;51.824;4.682;2022-08-19T08:34:09;30.10;;;17.88;;
37997;SDS011;24079;51.824;4.682;2022-08-19T08:36:37;30.35;;;17.45;;
37997;SDS011;24079;51.824;4.682;2022-08-19T08:39:07;31.75;;;17.83;;
37997;SDS011;24079;51.824;4.682;2022-08-19T08:42:07;27.13;;;17.05;;
37997;SDS011;24079;51.824;4.682;2022-08-19T08:45:10;33.55;;;17.30;;
37997;SDS011;24079;51.824;4.682;2022-08-19T08:47:40;28.00;;;15.25;;
37997;SDS011;24079;51.824;4.682;2022-08-19T08:52:50;24.02;;;15.05;;
37997;SDS011;24079;51.824;4.682;2022-08-19T08:55:22;27.15;;;15.75;;
37997;SDS011;24079;51.824;4.682;2022-08-19T08:57:53;26.98;;;15.48;;
37997;SDS011;24079;51.824;4.682;2022-08-19T09:00:26;27.52;;;15.15;;
37997;SDS011;24079;51.824;4.682;2022-08-19T09:02:54;28.02;;;13.95;;
37997;SDS011;24079;51.824;4.682;2022-08-19T09:05:22;25.20;;;13.98;;
37997;SDS011;24079;51.824;4.682;2022-08-19T09:10:46;21.90;;;12.18;;
37997;SDS011;24079;51.824;4.682;2022-08-19T09:15:45;28.83;;;13.43;;
37997;SDS011;24079;51.824;4.682;2022-08-19T09:18:14;24.65;;;11.65;;
37997;SDS011;24079;51.824;4.682;2022-08-19T09:20:41;20.80;;;11.18;;
37997;SDS011;24079;51.824;4.682;2022-08-19T09:23:07;25.33;;;11.43;;
37997;SDS011;24079;51.824;4.682;2022-08-19T09:25:33;21.90;;;11.43;;
37997;SDS011;24079;51.824;4.682;2022-08-19T09:27:59;16.90;;;10.90;;
37997;SDS011;24079;51.824;4.682;2022-08-19T09:30:28;24.15;;;11.05;;
37997;SDS011;24079;51.824;4.682;2022-08-19T09:32:56;22.08;;;11.40;;
37997;SDS011;24079;51.824;4.682;2022-08-19T09:35:23;25.90;;;11.27;;
37997;SDS011;24079;51.824;4.682;2022-08-19T09:37:50;24.10;;;10.40;;
37997;SDS011;24079;51.824;4.682;2022-08-19T09:40:16;30.88;;;11.15;;
37997;SDS011;24079;51.824;4.682;2022-08-19T09:42:43;19.98;;;10.20;;
37997;SDS011;24079;51.824;4.682;2022-08-19T09:45:11;19.13;;;10.15;;
37997;SDS011;24079;51.824;4.682;2022-08-19T09:47:37;15.15;;;9.60;;
37997;SDS011;24079;51.824;4.682;2022-08-19T09:50:06;20.15;;;10.00;;
37997;SDS011;24079;51.824;4.682;2022-08-19T09:52:34;19.75;;;10.90;;
37997;SDS011;24079;51.824;4.682;2022-08-19T09:55:06;13.68;;;8.70;;
37997;SDS011;24079;51.824;4.682;2022-08-19T09:57:33;19.40;;;10.07;;
37997;SDS011;24079;51.824;4.682;2022-08-19T09:59:59;19.42;;;9.88;;
37997;SDS011;24079;51.824;4.682;2022-08-19T10:02:25;16.77;;;9.63;;
37997;SDS011;24079;51.824;4.682;2022-08-19T10:04:50;23.30;;;10.10;;
37997;SDS011;24079;51.824;4.682;2022-08-19T10:07:35;18.73;;;9.40;;
37997;SDS011;24079;51.824;4.682;2022-08-19T10:10:05;19.88;;;9.15;;
37997;SDS011;24079;51.824;4.682;2022-08-19T10:12:32;17.25;;;8.48;;
37997;SDS011;24079;51.824;4.682;2022-08-19T10:14:59;14.27;;;7.95;;
37997;SDS011;24079;51.824;4.682;2022-08-19T10:17:25;22.48;;;9.80;;
37997;SDS011;24079;51.824;4.682;2022-08-19T10:19:50;18.60;;;9.00;;
37997;SDS011;24079;51.824;4.682;2022-08-19T10:22:17;14.52;;;8.63;;
37997;SDS011;24079;51.824;4.682;2022-08-19T10:24:43;15.82;;;8.82;;
37997;SDS011;24079;51.824;4.682;2022-08-19T10:27:10;15.48;;;8.60;;
37997;SDS011;24079;51.824;4.682;2022-08-19T10:29:37;15.68;;;7.57;;
37997;SDS011;24079;51.824;4.682;2022-08-19T10:32:05;13.27;;;7.35;;
37997;SDS011;24079;51.824;4.682;2022-08-19T10:34:32;15.98;;;8.00;;
37997;SDS011;24079;51.824;4.682;2022-08-19T10:36:59;17.30;;;9.13;;
37997;SDS011;24079;51.824;4.682;2022-08-19T10:39:25;14.90;;;9.07;;
37997;SDS011;24079;51.824;4.682;2022-08-19T10:41:54;18.10;;;10.63;;
37997;SDS011;24079;51.824;4.682;2022-08-19T10:44:20;17.67;;;9.70;;
37997;SDS011;24079;51.824;4.682;2022-08-19T10:46:48;21.77;;;14.68;;
37997;SDS011;24079;51.824;4.682;2022-08-19T10:49:14;27.13;;;15.48;;
37997;SDS011;24079;51.824;4.682;2022-08-19T10:51:40;20.75;;;13.88;;
37997;SDS011;24079;51.824;4.682;2022-08-19T10:54:24;20.70;;;11.93;;
37997;SDS011;24079;51.824;4.682;2022-08-19T10:57:09;22.02;;;11.75;;
37997;SDS011;24079;51.824;4.682;2022-08-19T10:59:35;14.65;;;11.02;;
37997;SDS011;24079;51.824;4.682;2022-08-19T11:02:01;17.67;;;9.43;;
37997;SDS011;24079;51.824;4.682;2022-08-19T11:04:28;15.02;;;9.90;;
37997;SDS011;24079;51.824;4.682;2022-08-19T11:06:54;12.48;;;9.20;;
37997;SDS011;24079;51.824;4.682;2022-08-19T11:09:21;15.93;;;9.52;;
37997;SDS011;24079;51.824;4.682;2022-08-19T11:11:58;15.35;;;10.38;;
37997;SDS011;24079;51.824;4.682;2022-08-19T11:14:23;18.63;;;10.73;;
37997;SDS011;24079;51.824;4.682;2022-08-19T11:16:50;13.32;;;8.75;;
37997;SDS011;24079;51.824;4.682;2022-08-19T11:19:20;10.38;;;6.18;;
37997;SDS011;24079;51.824;4.682;2022-08-19T11:21:49;15.77;;;6.57;;
37997;SDS011;24079;51.824;4.682;2022-08-19T11:24:18;14.38;;;7.45;;
37997;SDS011;24079;51.824;4.682;2022-08-19T11:26:48;13.45;;;8.60;;
37997;SDS011;24079;51.824;4.682;2022-08-19T11:29:16;12.90;;;8.82;;
37997;SDS011;24079;51.824;4.682;2022-08-19T11:31:45;12.75;;;8.98;;
37997;SDS011;24079;51.824;4.682;2022-08-19T11:34:13;15.00;;;9.85;;
37997;SDS011;24079;51.824;4.682;2022-08-19T11:36:43;16.00;;;10.23;;
37997;SDS011;24079;51.824;4.682;2022-08-19T11:39:11;14.95;;;10.10;;
37997;SDS011;24079;51.824;4.682;2022-08-19T11:41:38;16.08;;;10.68;;
37997;SDS011;24079;51.824;4.682;2022-08-19T11:44:04;12.70;;;8.77;;
37997;SDS011;24079;51.824;4.682;2022-08-19T11:46:32;16.90;;;8.60;;
37997;SDS011;24079;51.824;4.682;2022-08-19T11:49:02;13.38;;;9.48;;
37997;SDS011;24079;51.824;4.682;2022-08-19T11:51:30;16.35;;;10.35;;
37997;SDS011;24079;51.824;4.682;2022-08-19T11:53:57;17.42;;;10.73;;
37997;SDS011;24079;51.824;4.682;2022-08-19T11:56:24;13.45;;;9.75;;
37997;SDS011;24079;51.824;4.682;2022-08-19T11:58:50;11.25;;;8.07;;
37997;SDS011;24079;51.824;4.682;2022-08-19T12:01:18;16.55;;;8.20;;
37997;SDS011;24079;51.824;4.682;2022-08-19T12:03:46;12.88;;;9.27;;
37997;SDS011;24079;51.824;4.682;2022-08-19T12:06:14;15.18;;;9.65;;
37997;SDS011;24079;51.824;4.682;2022-08-19T12:08:41;15.85;;;10.88;;
37997;SDS011;24079;51.824;4.682;2022-08-19T12:11:08;14.63;;;10.25;;
37997;SDS011;24079;51.824;4.682;2022-08-19T12:13:35;18.08;;;10.85;;
37997;SDS011;24079;51.824;4.682;2022-08-19T12:16:07;16.33;;;11.13;;
37997;SDS011;24079;51.824;4.682;2022-08-19T12:18:37;16.52;;;10.75;;
37997;SDS011;24079;51.824;4.682;2022-08-19T12:21:04;18.10;;;12.32;;
37997;SDS011;24079;51.824;4.682;2022-08-19T12:23:29;17.65;;;13.40;;
37997;SDS011;24079;51.824;4.682;2022-08-19T12:25:55;18.05;;;12.35;;
37997;SDS011;24079;51.824;4.682;2022-08-19T12:28:22;16.38;;;11.52;;
37997;SDS011;24079;51.824;4.682;2022-08-19T12:30:49;15.85;;;11.55;;
37997;SDS011;24079;51.824;4.682;2022-08-19T12:33:16;12.43;;;9.63;;
37997;SDS011;24079;51.824;4.682;2022-08-19T12:35:43;16.80;;;13.20;;
37997;SDS011;24079;51.824;4.682;2022-08-19T12:38:11;20.92;;;13.00;;
37997;SDS011;24079;51.824;4.682;2022-08-19T12:40:38;17.65;;;12.35;;
37997;SDS011;24079;51.824;4.682;2022-08-19T12:43:05;18.45;;;12.90;;
37997;SDS011;24079;51.824;4.682;2022-08-19T12:45:34;17.75;;;13.15;;
37997;SDS011;24079;51.824;4.682;2022-08-19T12:47:59;19.98;;;12.75;;
37997;SDS011;24079;51.824;4.682;2022-08-19T12:50:25;16.45;;;12.27;;
37997;SDS011;24079;51.824;4.682;2022-08-19T12:52:51;18.65;;;12.73;;
37997;SDS011;24079;51.824;4.682;2022-08-19T12:55:17;20.40;;;11.85;;
37997;SDS011;24079;51.824;4.682;2022-08-19T12:57:43;16.17;;;10.93;;
37997;SDS011;24079;51.824;4.682;2022-08-19T13:00:13;13.73;;;9.57;;
37997;SDS011;24079;51.824;4.682;2022-08-19T13:02:45;15.00;;;9.20;;
37997;SDS011;24079;51.824;4.682;2022-08-19T13:05:16;19.75;;;10.70;;
37997;SDS011;24079;51.824;4.682;2022-08-19T13:07:47;14.60;;;9.93;;
37997;SDS011;24079;51.824;4.682;2022-08-19T13:10:15;14.40;;;11.10;;
37997;SDS011;24079;51.824;4.682;2022-08-19T13:12:44;15.88;;;10.75;;
37997;SDS011;24079;51.824;4.682;2022-08-19T13:15:11;17.08;;;11.20;;
37997;SDS011;24079;51.824;4.682;2022-08-19T13:17:37;16.13;;;11.45;;
37997;SDS011;24079;51.824;4.682;2022-08-19T13:20:04;16.38;;;11.05;;
37997;SDS011;24079;51.824;4.682;2022-08-19T13:22:33;18.73;;;11.00;;
37997;SDS011;24079;51.824;4.682;2022-08-19T13:25:00;17.90;;;11.13;;
37997;SDS011;24079;51.824;4.682;2022-08-19T13:27:26;18.75;;;11.70;;
37997;SDS011;24079;51.824;4.682;2022-08-19T13:29:52;22.25;;;12.23;;
37997;SDS011;24079;51.824;4.682;2022-08-19T13:32:36;16.90;;;10.63;;
37997;SDS011;24079;51.824;4.682;2022-08-19T13:35:20;17.17;;;11.45;;
37997;SDS011;24079;51.824;4.682;2022-08-19T13:37:46;16.83;;;11.57;;
37997;SDS011;24079;51.824;4.682;2022-08-19T13:42:39;17.45;;;11.82;;
37997;SDS011;24079;51.824;4.682;2022-08-19T13:45:06;19.80;;;12.52;;
37997;SDS011;24079;51.824;4.682;2022-08-19T13:47:33;20.88;;;13.90;;
37997;SDS011;24079;51.824;4.682;2022-08-19T13:49:59;20.85;;;14.00;;
37997;SDS011;24079;51.824;4.682;2022-08-19T13:52:27;20.67;;;15.15;;
37997;SDS011;24079;51.824;4.682;2022-08-19T13:54:52;20.55;;;14.05;;
37997;SDS011;24079;51.824;4.682;2022-08-19T13:57:18;25.70;;;15.32;;
37997;SDS011;24079;51.824;4.682;2022-08-19T13:59:44;21.55;;;15.20;;
37997;SDS011;24079;51.824;4.682;2022-08-19T14:02:10;21.98;;;13.60;;
37997;SDS011;24079;51.824;4.682;2022-08-19T14:04:35;13.27;;;8.57;;
37997;SDS011;24079;51.824;4.682;2022-08-19T14:07:02;14.27;;;8.35;;
37997;SDS011;24079;51.824;4.682;2022-08-19T14:09:28;12.85;;;8.48;;
37997;SDS011;24079;51.824;4.682;2022-08-19T14:11:54;10.68;;;7.38;;
37997;SDS011;24079;51.824;4.682;2022-08-19T14:14:20;10.50;;;7.75;;
37997;SDS011;24079;51.824;4.682;2022-08-19T14:16:46;8.27;;;6.07;;
37997;SDS011;24079;51.824;4.682;2022-08-19T14:19:12;11.02;;;7.80;;
37997;SDS011;24079;51.824;4.682;2022-08-19T14:21:37;11.80;;;7.78;;
37997;SDS011;24079;51.824;4.682;2022-08-19T14:24:06;11.15;;;7.65;;
37997;SDS011;24079;51.824;4.682;2022-08-19T14:26:32;11.05;;;7.47;;
37997;SDS011;24079;51.824;4.682;2022-08-19T14:28:57;8.98;;;5.93;;
37997;SDS011;24079;51.824;4.682;2022-08-19T14:31:23;15.20;;;6.40;;
37997;SDS011;24079;51.824;4.682;2022-08-19T14:33:49;9.48;;;5.60;;
37997;SDS011;24079;51.824;4.682;2022-08-19T14:36:15;12.30;;;6.82;;
37997;SDS011;24079;51.824;4.682;2022-08-19T14:38:42;10.98;;;6.70;;
37997;SDS011;24079;51.824;4.682;2022-08-19T14:43:41;9.15;;;5.70;;